createdAt,value
2018-12-01T00:00:44.993Z,78.66
2018-12-01T00:03:15.624Z,76.89
2018-12-01T00:05:46.464Z,76.58
2018-12-01T00:08:25.195Z,77.42
2018-12-01T00:10:56.055Z,76.59
2018-12-01T00:13:28.027Z,76.59
2018-12-01T00:16:00.075Z,76.43
2018-12-01T00:18:30.800Z,77.02
2018-12-01T00:21:01.805Z,77.03
2018-12-01T00:23:33.871Z,78.63
2018-12-01T00:26:05.119Z,77.02
2018-12-01T00:28:36.017Z,76.74
2018-12-01T00:31:06.808Z,76.84
2018-12-01T00:33:42.782Z,77.57
2018-12-01T00:36:14.880Z,77.89
2018-12-01T00:38:47.323Z,78.21
2018-12-01T00:41:18.318Z,77.39
2018-12-01T00:43:49.310Z,77.00
2018-12-01T00:46:21.672Z,77.29
2018-12-01T00:48:53.622Z,77.74
2018-12-01T00:51:25.104Z,77.00
2018-12-01T00:53:57.763Z,75.71
2018-12-01T00:56:28.289Z,75.63
2018-12-01T00:58:58.578Z,74.47
2018-12-01T01:01:29.344Z,74.67
2018-12-01T01:03:59.896Z,75.32
2018-12-01T01:06:30.502Z,74.76
2018-12-01T01:09:01.343Z,75.47
2018-12-01T01:11:35.004Z,75.62
2018-12-01T01:14:07.587Z,76.34
2018-12-01T01:16:45.115Z,75.64
2018-12-01T01:19:18.698Z,75.55
2018-12-01T01:21:53.291Z,76.09
2018-12-01T01:24:28.860Z,77.27
2018-12-01T01:27:11.185Z,76.63
2018-12-01T01:29:44.966Z,75.79
2018-12-01T01:32:21.950Z,76.12
2018-12-01T01:35:00.115Z,75.60
2018-12-01T01:37:32.182Z,75.46
2018-12-01T01:40:07.391Z,77.52
2018-12-01T01:42:37.999Z,77.39
2018-12-01T01:45:29.470Z,75.80
2018-12-01T01:48:00.190Z,75.17
2018-12-01T01:50:32.902Z,76.64
2018-12-01T01:53:04.387Z,76.22
2018-12-01T01:55:37.528Z,75.84
2018-12-01T01:58:11.431Z,75.99
2018-12-01T02:00:42.272Z,75.42
2018-12-01T02:03:12.934Z,74.98
2018-12-01T02:05:46.327Z,74.86
2018-12-01T02:08:17.544Z,74.70
2018-12-01T02:17:05.533Z,75.94
2018-12-01T02:19:38.751Z,74.79
2018-12-01T02:22:13.212Z,73.80
2018-12-01T02:24:48.200Z,73.93
2018-12-01T02:27:19.065Z,75.85
2018-12-01T02:29:49.635Z,75.05
2018-12-01T02:32:21.420Z,74.16
2018-12-01T02:34:53.611Z,73.08
2018-12-01T02:37:24.723Z,74.18
2018-12-01T02:39:57.607Z,74.04
2018-12-01T02:42:31.569Z,74.03
2018-12-01T02:45:23.177Z,73.59
2018-12-01T02:48:00.345Z,73.04
2018-12-01T02:50:31.967Z,72.89
2018-12-01T02:53:02.909Z,72.63
2018-12-01T02:55:34.909Z,73.67
2018-12-01T02:58:10.035Z,74.40
2018-12-01T03:06:54.691Z,75.25
2018-12-01T03:09:27.591Z,74.85
2018-12-01T03:11:58.708Z,73.25
2018-12-01T03:14:29.690Z,73.16
2018-12-01T03:17:00.222Z,72.24
2018-12-01T03:19:30.756Z,74.51
2018-12-01T03:22:01.403Z,73.89
2018-12-01T03:24:32.535Z,75.87
2018-12-01T03:27:06.809Z,77.21
2018-12-01T03:29:39.908Z,76.53
2018-12-01T03:32:12.815Z,75.57
2018-12-01T03:34:46.641Z,74.99
2018-12-01T03:37:17.811Z,75.60
2018-12-01T03:39:50.975Z,75.57
2018-12-01T03:42:21.810Z,77.10
2018-12-01T03:44:52.651Z,76.66
2018-12-01T03:47:25.862Z,76.70
2018-12-01T03:49:59.234Z,75.75
2018-12-01T03:52:30.069Z,74.59
2018-12-01T03:55:03.090Z,74.98
2018-12-01T03:57:33.890Z,73.63
2018-12-01T04:00:07.904Z,72.23
2018-12-01T04:02:39.727Z,72.84
2018-12-01T04:05:12.147Z,73.35
2018-12-01T04:07:54.223Z,73.37
2018-12-01T04:10:28.526Z,73.77
2018-12-01T04:13:06.954Z,74.42
2018-12-01T04:15:40.593Z,74.04
2018-12-01T04:18:14.027Z,74.19
2018-12-01T04:20:44.793Z,74.21
2018-12-01T04:23:15.770Z,74.96
2018-12-01T04:25:46.751Z,75.11
2018-12-01T04:28:20.083Z,75.97
2018-12-01T04:30:53.762Z,75.18
2018-12-01T04:33:25.107Z,75.25
2018-12-01T04:36:01.953Z,74.55
2018-12-01T04:38:35.815Z,76.47
2018-12-01T04:41:07.742Z,77.00
2018-12-01T04:43:39.255Z,77.63
2018-12-01T04:46:10.086Z,76.43
2018-12-01T04:48:43.143Z,75.71
2018-12-01T04:51:17.930Z,77.25
2018-12-01T04:53:51.326Z,75.70
2018-12-01T04:56:22.409Z,75.24
2018-12-01T04:58:55.101Z,74.53
2018-12-01T05:01:25.958Z,74.18
2018-12-01T05:03:59.130Z,73.71
2018-12-01T05:06:33.130Z,73.04
2018-12-01T05:09:08.975Z,72.72
2018-12-01T05:11:40.296Z,73.03
2018-12-01T05:14:12.262Z,71.87
2018-12-01T05:16:44.100Z,72.98
2018-12-01T05:19:17.171Z,72.73
2018-12-01T05:21:48.362Z,73.03
2018-12-01T05:24:21.627Z,73.27
2018-12-01T05:26:52.577Z,74.62
2018-12-01T05:29:25.428Z,74.70
2018-12-01T05:31:57.223Z,74.06
2018-12-01T05:34:31.484Z,75.02
2018-12-01T05:37:03.651Z,74.78
2018-12-01T05:39:34.271Z,74.54
2018-12-01T05:42:05.446Z,73.89
2018-12-01T05:44:38.249Z,74.28
2018-12-01T05:47:10.467Z,74.50
2018-12-01T05:49:43.917Z,74.31
2018-12-01T05:52:21.711Z,72.09
2018-12-01T05:54:53.589Z,72.60
2018-12-01T05:57:24.215Z,71.84
2018-12-01T05:59:54.684Z,72.12
2018-12-01T06:02:25.706Z,71.96
2018-12-01T06:04:56.356Z,71.12
2018-12-01T06:07:27.517Z,71.75
2018-12-01T06:10:00.494Z,71.70
2018-12-01T06:12:32.850Z,72.41
2018-12-01T06:15:07.715Z,71.72
2018-12-01T06:17:38.674Z,72.47
2018-12-01T06:20:12.293Z,73.48
2018-12-01T06:22:54.136Z,73.35
2018-12-01T06:25:30.923Z,74.03
2018-12-01T06:28:01.439Z,73.61
2018-12-01T06:30:32.049Z,73.31
2018-12-01T06:33:02.627Z,72.91
2018-12-01T06:35:33.203Z,73.93
2018-12-01T06:38:03.742Z,73.37
2018-12-01T06:40:34.675Z,73.15
2018-12-01T06:43:05.810Z,71.80
2018-12-01T06:45:44.499Z,72.39
2018-12-01T06:48:18.845Z,71.74
2018-12-01T06:50:52.127Z,73.19
2018-12-01T06:53:23.125Z,72.60
2018-12-01T06:55:55.828Z,71.54
2018-12-01T06:58:26.636Z,71.19
2018-12-01T07:00:57.850Z,70.62
2018-12-01T07:03:30.804Z,69.75
2018-12-01T07:06:03.044Z,71.89
2018-12-01T07:08:35.468Z,72.58
2018-12-01T07:11:10.535Z,72.95
2018-12-01T07:13:43.758Z,72.52
2018-12-01T07:16:14.328Z,72.53
2018-12-01T07:19:27.295Z,72.06
2018-12-01T07:22:12.526Z,73.53
2018-12-01T07:24:43.907Z,74.55
2018-12-01T07:27:16.835Z,73.33
2018-12-01T07:29:47.363Z,73.43
2018-12-01T07:32:17.873Z,72.56
2018-12-01T07:34:48.689Z,71.60
2018-12-01T07:37:19.391Z,71.58
2018-12-01T07:39:52.766Z,71.26
2018-12-01T07:42:27.232Z,71.77
2018-12-01T07:45:00.225Z,70.97
2018-12-01T07:47:31.129Z,69.64
2018-12-01T07:50:05.259Z,70.47
2018-12-01T07:52:37.469Z,70.42
2018-12-01T07:55:08.700Z,70.33
2018-12-01T07:57:59.869Z,70.00
2018-12-01T08:00:33.134Z,68.92
2018-12-01T08:03:05.230Z,68.74
2018-12-01T08:05:38.831Z,68.31
2018-12-01T08:08:17.419Z,72.36
2018-12-01T08:10:51.807Z,73.56
2018-12-01T08:13:22.328Z,71.65
2018-12-01T08:15:54.940Z,70.91
2018-12-01T08:18:30.227Z,71.59
2018-12-01T08:21:02.866Z,74.27
2018-12-01T08:23:34.115Z,72.92
2018-12-01T08:26:07.989Z,71.83
2018-12-01T08:28:44.799Z,71.46
2018-12-01T08:31:18.231Z,71.47
2018-12-01T08:33:49.462Z,73.88
2018-12-01T08:36:22.326Z,73.31
2018-12-01T08:38:53.223Z,71.87
2018-12-01T08:41:28.939Z,70.66
2018-12-01T08:44:01.293Z,70.51
2018-12-01T08:46:34.282Z,71.26
2018-12-01T08:49:07.334Z,69.26
2018-12-01T08:51:41.221Z,68.87
2018-12-01T08:54:18.147Z,69.48
2018-12-01T08:56:52.266Z,69.02
2018-12-01T08:59:23.120Z,68.58
2018-12-01T09:01:54.890Z,68.56
2018-12-01T09:04:25.727Z,68.95
2018-12-01T09:06:56.618Z,68.29
2018-12-01T09:09:27.708Z,68.71
2018-12-01T09:12:04.082Z,68.88
2018-12-01T09:14:37.390Z,67.71
2018-12-01T09:17:09.146Z,67.31
2018-12-01T09:19:42.606Z,68.79
2018-12-01T09:22:15.199Z,68.54
2018-12-01T09:24:47.254Z,66.85
2018-12-01T09:27:22.626Z,66.50
2018-12-01T09:29:57.290Z,65.51
2018-12-01T09:32:29.483Z,64.40
2018-12-01T09:35:00.653Z,64.41
2018-12-01T09:37:31.499Z,63.85
2018-12-01T09:40:05.591Z,66.73
2018-12-01T09:42:36.298Z,66.59
2018-12-01T09:45:16.664Z,65.11
2018-12-01T09:48:01.441Z,64.02
2018-12-01T09:50:33.439Z,64.31
2018-12-01T09:53:06.439Z,64.26
2018-12-01T09:55:38.562Z,64.47
2018-12-01T09:58:09.991Z,65.77
2018-12-01T10:00:51.638Z,66.28
2018-12-01T10:03:22.570Z,66.22
2018-12-01T10:05:56.543Z,65.51
2018-12-01T10:08:32.740Z,65.99
2018-12-01T10:11:05.941Z,67.41
2018-12-01T10:13:39.680Z,66.78
2018-12-01T10:16:12.428Z,66.33
2018-12-01T10:18:43.558Z,65.58
2018-12-01T10:21:14.227Z,64.28
2018-12-01T10:23:45.236Z,63.52
2018-12-01T10:26:18.248Z,64.59
2018-12-01T10:28:51.603Z,65.56
2018-12-01T10:31:22.807Z,66.59
2018-12-01T10:33:53.782Z,65.97
2018-12-01T10:36:25.689Z,66.53
2018-12-01T10:38:57.787Z,66.82
2018-12-01T10:41:28.923Z,66.43
2018-12-01T10:44:01.724Z,67.98
2018-12-01T10:46:35.804Z,68.15
2018-12-01T10:49:08.475Z,67.51
2018-12-01T10:51:43.243Z,67.32
2018-12-01T10:54:14.695Z,67.56
2018-12-01T10:56:48.693Z,67.78
2018-12-01T10:59:22.268Z,69.30
2018-12-01T11:01:57.758Z,67.93
2018-12-01T11:04:33.731Z,69.34
2018-12-01T11:07:06.184Z,68.41
2018-12-01T11:09:40.363Z,66.63
2018-12-01T11:12:21.967Z,66.92
2018-12-01T11:14:54.012Z,67.91
2018-12-01T11:17:25.777Z,66.69
2018-12-01T11:19:56.547Z,67.50
2018-12-01T11:22:28.645Z,67.57
2018-12-01T11:25:01.355Z,66.76
2018-12-01T11:27:31.961Z,66.92
2018-12-01T11:30:02.557Z,66.35
2018-12-01T11:32:33.466Z,66.91
2018-12-01T11:35:10.424Z,68.07
2018-12-01T11:37:42.868Z,67.10
2018-12-01T11:40:27.973Z,67.60
2018-12-01T11:42:59.658Z,68.70
2018-12-01T11:45:35.083Z,66.98
2018-12-01T11:48:11.951Z,67.37
2018-12-01T11:50:44.066Z,69.25
2018-12-01T11:53:17.490Z,70.70
2018-12-01T11:55:48.150Z,73.14
2018-12-01T11:58:19.127Z,72.91
2018-12-01T12:00:50.857Z,72.77
2018-12-01T12:03:29.298Z,71.76
2018-12-01T12:06:00.712Z,71.62
2018-12-01T12:08:42.048Z,71.96
2018-12-01T12:11:13.623Z,72.83
2018-12-01T12:13:44.032Z,72.33
2018-12-01T12:16:14.934Z,71.45
2018-12-01T12:18:48.163Z,73.90
2018-12-01T12:21:19.002Z,73.79
2018-12-01T12:23:53.275Z,73.87
2018-12-01T12:26:26.263Z,73.34
2018-12-01T12:28:59.147Z,73.26
2018-12-01T12:31:32.280Z,71.60
2018-12-01T12:34:03.287Z,70.30
2018-12-01T12:36:34.195Z,71.03
2018-12-01T12:39:06.253Z,70.67
2018-12-01T12:41:37.840Z,70.37
2018-12-01T12:44:12.246Z,72.09
2018-12-01T12:46:48.766Z,71.42
2018-12-01T12:49:22.471Z,71.58
2018-12-01T12:51:53.040Z,70.05
2018-12-01T12:54:23.635Z,69.45
2018-12-01T12:56:54.071Z,69.95
2018-12-01T12:59:24.877Z,70.86
2018-12-01T13:01:56.005Z,71.88
2018-12-01T13:04:26.708Z,72.29
2018-12-01T13:06:57.470Z,70.74
2018-12-01T13:09:28.099Z,71.19
2018-12-01T13:11:58.472Z,71.73
2018-12-01T13:14:29.389Z,71.45
2018-12-01T13:17:00.099Z,70.81
2018-12-01T13:19:31.370Z,70.99
2018-12-01T13:22:01.938Z,71.79
2018-12-01T13:24:32.571Z,72.04
2018-12-01T13:27:09.183Z,72.88
2018-12-01T13:29:48.296Z,72.91
2018-12-01T13:32:18.599Z,71.73
2018-12-01T13:34:49.823Z,73.09
2018-12-01T13:37:22.240Z,73.47
2018-12-01T13:39:57.443Z,71.35
2018-12-01T13:42:29.181Z,71.88
2018-12-01T13:44:59.854Z,72.79
2018-12-01T13:47:31.693Z,74.40
2018-12-01T13:50:05.081Z,72.55
2018-12-01T13:52:42.160Z,71.18
2018-12-01T13:55:33.222Z,70.95
2018-12-01T13:58:05.228Z,70.43
2018-12-01T14:00:48.189Z,70.82
2018-12-01T14:03:26.430Z,70.43
2018-12-01T14:05:57.451Z,69.47
2018-12-01T14:08:33.411Z,71.34
2018-12-01T14:11:06.962Z,72.97
2018-12-01T14:13:37.595Z,72.06
2018-12-01T14:16:08.965Z,71.64
2018-12-01T14:18:40.521Z,75.01
2018-12-01T14:21:14.819Z,76.57
2018-12-01T14:23:46.840Z,76.05
2018-12-01T14:26:17.929Z,73.26
2018-12-01T14:28:49.139Z,73.37
2018-12-01T14:31:19.748Z,74.54
2018-12-01T14:33:50.422Z,74.10
2018-12-01T14:36:23.145Z,74.78
2018-12-01T14:38:57.700Z,71.97
2018-12-01T14:41:29.699Z,71.61
2018-12-01T14:44:02.071Z,71.34
2018-12-01T14:46:34.814Z,73.66
2018-12-01T14:49:10.504Z,73.27
2018-12-01T14:51:45.013Z,71.96
2018-12-01T14:54:15.437Z,69.92
2018-12-01T14:56:54.717Z,70.98
2018-12-01T14:59:25.307Z,71.86
2018-12-01T15:01:56.031Z,71.47
2018-12-01T15:04:27.287Z,72.21
2018-12-01T15:07:00.482Z,72.34
2018-12-01T15:09:36.902Z,72.59
2018-12-01T15:12:09.880Z,73.77
2018-12-01T15:14:41.039Z,72.63
2018-12-01T15:17:13.930Z,72.04
2018-12-01T15:19:44.805Z,73.76
2018-12-01T15:22:15.526Z,74.88
2018-12-01T15:24:46.195Z,73.47
2018-12-01T15:27:16.863Z,72.62
2018-12-01T15:29:52.777Z,70.91
2018-12-01T15:32:23.352Z,70.80
2018-12-01T15:34:54.764Z,72.35
2018-12-01T15:37:26.966Z,72.28
2018-12-01T15:39:59.583Z,71.85
2018-12-01T15:42:35.230Z,71.58
2018-12-01T15:45:06.790Z,71.48
2018-12-01T15:47:40.101Z,72.17
2018-12-01T15:50:18.291Z,73.70
2018-12-01T15:52:53.583Z,72.35
2018-12-01T15:55:35.230Z,72.83
2018-12-01T15:58:07.016Z,72.66
2018-12-01T16:00:39.688Z,73.34
2018-12-01T16:03:13.141Z,72.60
2018-12-01T16:05:46.135Z,72.71
2018-12-01T16:08:18.680Z,72.64
2018-12-01T16:10:53.122Z,73.40
2018-12-01T16:13:27.561Z,73.60
2018-12-01T16:16:03.499Z,73.34
2018-12-01T16:18:33.771Z,73.53
2018-12-01T16:21:04.846Z,73.86
2018-12-01T16:23:43.588Z,73.44
2018-12-01T16:26:20.642Z,73.99
2018-12-01T16:28:52.688Z,74.26
2018-12-01T16:31:23.523Z,74.71
2018-12-01T16:33:54.369Z,75.37
2018-12-01T16:36:26.419Z,75.19
2018-12-01T16:38:58.513Z,74.22
2018-12-01T16:41:33.180Z,74.23
2018-12-01T16:44:06.699Z,74.78
2018-12-01T16:46:39.290Z,74.84
2018-12-01T16:49:10.158Z,74.02
2018-12-01T16:51:43.422Z,73.35
2018-12-01T16:54:14.428Z,73.77
2018-12-01T16:56:45.640Z,73.63
2018-12-01T16:59:17.458Z,73.29
2018-12-01T17:01:50.575Z,73.83
2018-12-01T17:04:29.222Z,74.21
2018-12-01T17:07:02.396Z,74.29
2018-12-01T17:09:36.446Z,74.55
2018-12-01T17:12:08.845Z,74.33
2018-12-01T17:14:50.447Z,74.72
2018-12-01T17:17:22.833Z,75.44
2018-12-01T17:19:56.892Z,76.37
2018-12-01T17:28:41.443Z,76.18
2018-12-01T17:31:14.726Z,75.92
2018-12-01T17:33:45.001Z,76.26
2018-12-01T17:36:22.053Z,76.76
2018-12-01T17:38:54.561Z,77.53
2018-12-01T17:41:29.952Z,75.38
2018-12-01T17:44:04.424Z,75.55
2018-12-01T17:46:35.528Z,74.74
2018-12-01T17:49:08.590Z,74.95
2018-12-01T17:51:43.520Z,75.79
2018-12-01T17:54:17.154Z,76.05
2018-12-01T17:56:49.526Z,76.18
2018-12-01T17:59:20.075Z,75.38
2018-12-01T18:01:50.602Z,74.51
2018-12-01T18:04:21.135Z,74.73
2018-12-01T18:06:51.977Z,74.50
2018-12-01T18:09:23.102Z,74.35
2018-12-01T18:11:55.894Z,74.26
2018-12-01T18:14:27.674Z,73.64
2018-12-01T18:16:59.557Z,73.82
2018-12-01T18:19:34.490Z,74.83
2018-12-01T18:22:10.480Z,73.45
2018-12-01T18:24:41.411Z,74.75
2018-12-01T18:27:12.454Z,75.29
2018-12-01T18:29:43.031Z,75.72
2018-12-01T18:32:13.586Z,75.92
2018-12-01T18:34:43.986Z,76.15
2018-12-01T18:37:14.975Z,74.79
2018-12-01T18:39:45.656Z,74.67
2018-12-01T18:42:16.391Z,75.14
2018-12-01T18:44:47.491Z,74.45
2018-12-01T18:47:20.018Z,74.36
2018-12-01T18:49:50.776Z,73.40
2018-12-01T18:52:22.997Z,73.36
2018-12-01T18:54:53.979Z,73.79
2018-12-01T18:57:25.770Z,73.30
2018-12-01T18:59:57.934Z,73.10
2018-12-01T19:02:30.247Z,74.00
2018-12-01T19:05:02.055Z,74.73
2018-12-01T19:07:32.988Z,74.41
2018-12-01T19:10:27.672Z,74.39
2018-12-01T19:13:05.098Z,74.53
2018-12-01T19:15:49.708Z,75.95
2018-12-01T19:18:24.163Z,76.01
2018-12-01T19:20:57.561Z,76.17
2018-12-01T19:23:29.913Z,76.60
2018-12-01T19:26:02.823Z,76.83
2018-12-01T19:28:36.226Z,77.25
2018-12-01T19:31:11.037Z,76.78
2018-12-01T19:33:41.579Z,77.35
2018-12-01T19:36:14.000Z,77.79
2018-12-01T19:38:46.300Z,78.11
2018-12-01T19:41:19.258Z,77.83
2018-12-01T19:43:52.489Z,78.20
2018-12-01T19:46:24.026Z,78.71
2018-12-01T19:48:58.922Z,79.34
2018-12-01T19:51:31.163Z,79.25
2018-12-01T19:54:02.106Z,79.87
2018-12-01T19:56:33.280Z,79.94
2018-12-01T19:59:03.851Z,80.26
2018-12-01T20:01:40.968Z,80.82
2018-12-01T20:04:13.656Z,80.71
2018-12-01T20:06:44.307Z,81.53
2018-12-01T20:09:20.514Z,81.46
2018-12-01T20:11:52.391Z,81.37
2018-12-01T20:14:23.523Z,81.98
2018-12-01T20:16:57.235Z,81.61
2018-12-01T20:19:29.393Z,81.24
2018-12-01T20:22:02.778Z,81.55
2018-12-01T20:24:35.290Z,81.00
2018-12-01T20:27:07.718Z,81.04
2018-12-01T20:29:39.285Z,80.69
2018-12-01T20:32:10.691Z,80.94
2018-12-01T20:34:41.245Z,81.31
2018-12-01T20:37:16.810Z,82.18
2018-12-01T20:39:48.271Z,81.71
2018-12-01T20:42:22.319Z,82.51
2018-12-01T20:44:55.497Z,82.04
2018-12-01T20:47:27.244Z,81.47
2018-12-01T20:49:59.355Z,81.54
2018-12-01T20:52:30.027Z,81.41
2018-12-01T20:55:00.640Z,81.15
2018-12-01T20:57:31.883Z,81.03
2018-12-01T21:00:09.015Z,81.17
2018-12-01T21:02:56.748Z,80.39
2018-12-01T21:05:39.093Z,79.95
2018-12-01T21:08:09.779Z,80.52
2018-12-01T21:10:48.403Z,80.54
2018-12-01T21:13:19.596Z,80.30
2018-12-01T21:15:57.255Z,80.42
2018-12-01T21:18:29.819Z,81.01
2018-12-01T21:21:01.478Z,80.06
2018-12-01T21:23:32.524Z,79.49
2018-12-01T21:26:08.479Z,79.97
2018-12-01T21:28:39.054Z,80.61
2018-12-01T21:31:10.574Z,80.21
2018-12-01T21:33:42.569Z,80.73
2018-12-01T21:36:14.441Z,80.46
2018-12-01T21:38:47.643Z,80.85
2018-12-01T21:41:20.704Z,79.96
2018-12-01T21:43:56.470Z,79.74
2018-12-01T21:46:27.476Z,79.70
2018-12-01T21:48:57.984Z,80.11
2018-12-01T21:51:28.604Z,80.01
2018-12-01T21:53:59.294Z,80.24
2018-12-01T21:56:29.997Z,80.83
2018-12-01T21:59:04.081Z,79.36
2018-12-01T22:01:37.896Z,79.42
2018-12-01T22:04:10.211Z,78.43
2018-12-01T22:06:43.656Z,78.38
2018-12-01T22:09:15.733Z,78.30
2018-12-01T22:11:48.734Z,78.39
2018-12-01T22:14:21.925Z,78.10
2018-12-01T22:16:54.605Z,78.14
2018-12-01T22:19:26.875Z,78.03
2018-12-01T22:22:00.008Z,78.35
2018-12-01T22:24:32.750Z,78.47
2018-12-01T22:27:03.893Z,78.47
2018-12-01T22:29:35.834Z,78.39
2018-12-01T22:32:07.826Z,77.98
2018-12-01T22:34:39.182Z,77.04
2018-12-01T22:37:09.482Z,75.65
2018-12-01T22:39:40.609Z,74.92
2018-12-01T22:42:11.435Z,74.60
2018-12-01T22:44:41.989Z,74.37
2018-12-01T22:47:14.686Z,75.27
2018-12-01T22:49:46.670Z,75.11
2018-12-01T22:52:19.070Z,75.66
2018-12-01T22:54:53.038Z,75.36
2018-12-01T22:57:24.281Z,74.06
2018-12-01T22:59:57.108Z,73.87
2018-12-01T23:02:30.143Z,74.37
2018-12-01T23:05:00.791Z,74.10
2018-12-01T23:07:31.547Z,74.99
2018-12-01T23:10:08.287Z,75.06
2018-12-01T23:12:41.270Z,74.56
2018-12-01T23:15:13.862Z,75.23
2018-12-01T23:17:56.256Z,75.60
2018-12-01T23:20:32.935Z,76.07
2018-12-01T23:23:07.411Z,75.33
2018-12-01T23:25:39.190Z,75.07
2018-12-01T23:28:12.130Z,74.46
2018-12-01T23:30:54.451Z,75.91
2018-12-01T23:33:28.759Z,75.37
2018-12-01T23:36:01.154Z,75.79
2018-12-01T23:38:32.594Z,75.93
2018-12-01T23:41:07.610Z,75.27
2018-12-01T23:43:39.148Z,75.56
2018-12-01T23:46:10.780Z,72.87
2018-12-01T23:48:43.935Z,71.75
2018-12-01T23:51:20.178Z,72.15
2018-12-01T23:53:54.187Z,72.93
2018-12-01T23:56:28.022Z,73.33
2018-12-01T23:58:58.797Z,73.73
